createdAt,value
2019-03-27T00:00:52.004Z,74.10
2019-03-27T00:03:23.810Z,73.93
2019-03-27T00:05:55.099Z,73.93
2019-03-27T00:08:26.411Z,72.96
2019-03-27T00:10:57.751Z,72.69
2019-03-27T00:13:29.046Z,72.54
2019-03-27T00:16:00.429Z,73.46
2019-03-27T00:18:31.728Z,73.01
2019-03-27T00:21:02.971Z,72.30
2019-03-27T00:23:34.457Z,72.08
2019-03-27T00:26:05.839Z,72.40
2019-03-27T00:28:37.208Z,72.07
2019-03-27T00:31:11.635Z,72.55
2019-03-27T00:33:41.438Z,73.05
2019-03-27T00:36:12.779Z,72.92
2019-03-27T00:38:44.181Z,73.08
2019-03-27T00:41:15.413Z,73.46
2019-03-27T00:43:46.769Z,73.74
2019-03-27T00:46:18.072Z,74.21
2019-03-27T00:48:49.431Z,74.00
2019-03-27T00:51:20.676Z,73.63
2019-03-27T00:53:51.989Z,73.08
2019-03-27T00:56:23.292Z,72.17
2019-03-27T00:58:54.748Z,72.14
2019-03-27T01:01:26.120Z,72.93
2019-03-27T01:03:57.364Z,73.08
2019-03-27T01:06:28.728Z,73.35
2019-03-27T01:09:00.052Z,73.70
2019-03-27T01:11:31.383Z,74.01
2019-03-27T01:14:02.625Z,74.36
2019-03-27T01:16:33.910Z,75.13
2019-03-27T01:19:05.286Z,76.02
2019-03-27T01:21:36.668Z,76.10
2019-03-27T01:24:09.097Z,75.73
2019-03-27T01:26:40.421Z,75.46
2019-03-27T01:29:11.730Z,76.16
2019-03-27T01:31:43.043Z,76.36
2019-03-27T01:34:14.286Z,76.40
2019-03-27T01:36:45.573Z,76.41
2019-03-27T01:39:16.813Z,76.45
2019-03-27T01:41:48.127Z,76.52
2019-03-27T01:44:19.372Z,76.59
2019-03-27T01:46:50.662Z,76.04
2019-03-27T01:49:21.955Z,75.60
2019-03-27T01:51:53.422Z,75.95
2019-03-27T01:54:24.662Z,76.19
2019-03-27T01:56:56.189Z,75.84
2019-03-27T01:59:27.436Z,75.25
2019-03-27T02:01:58.861Z,75.33
2019-03-27T02:04:30.143Z,76.08
2019-03-27T02:07:01.641Z,76.35
2019-03-27T02:09:33.084Z,76.11
2019-03-27T02:12:04.744Z,76.12
2019-03-27T02:14:36.193Z,75.74
2019-03-27T02:17:07.617Z,75.59
2019-03-27T02:19:38.936Z,75.51
2019-03-27T02:22:12.524Z,75.98
2019-03-27T02:24:43.958Z,74.88
2019-03-27T02:27:15.557Z,74.96
2019-03-27T02:29:46.864Z,75.25
2019-03-27T02:32:20.660Z,75.74
2019-03-27T02:34:51.049Z,76.55
2019-03-27T02:37:22.414Z,76.81
2019-03-27T02:39:53.758Z,76.16
2019-03-27T02:42:25.045Z,76.59
2019-03-27T02:44:56.421Z,76.96
2019-03-27T02:47:27.658Z,76.88
2019-03-27T02:49:58.891Z,77.60
2019-03-27T02:52:30.304Z,78.17
2019-03-27T02:55:01.549Z,78.29
2019-03-27T02:57:32.844Z,78.86
2019-03-27T03:00:06.070Z,78.93
2019-03-27T03:02:37.450Z,78.82
2019-03-27T03:05:11.295Z,78.57
2019-03-27T03:07:43.175Z,78.17
2019-03-27T03:10:16.203Z,78.08
2019-03-27T03:12:47.520Z,78.00
2019-03-27T03:15:23.144Z,78.07
2019-03-27T03:17:54.410Z,77.83
2019-03-27T03:20:26.877Z,78.06
2019-03-27T03:22:58.197Z,78.16
2019-03-27T03:25:29.617Z,78.20
2019-03-27T03:28:00.844Z,78.19
2019-03-27T03:30:32.280Z,77.93
2019-03-27T03:33:03.586Z,78.09
2019-03-27T03:35:34.973Z,78.05
2019-03-27T03:38:07.283Z,78.08
2019-03-27T03:40:38.649Z,77.97
2019-03-27T03:43:11.901Z,77.16
2019-03-27T03:45:43.212Z,77.33
2019-03-27T03:48:14.628Z,77.64
2019-03-27T03:50:55.155Z,77.61
2019-03-27T03:53:27.251Z,77.76
2019-03-27T03:56:00.311Z,77.80
2019-03-27T03:58:34.065Z,78.05
2019-03-27T04:01:05.440Z,78.28
2019-03-27T04:03:37.855Z,78.24
2019-03-27T04:06:09.160Z,78.24
2019-03-27T04:08:40.493Z,78.12
2019-03-27T04:11:11.869Z,77.99
2019-03-27T04:13:43.137Z,77.98
2019-03-27T04:16:14.433Z,77.99
2019-03-27T04:18:45.790Z,77.98
2019-03-27T04:21:17.015Z,77.90
2019-03-27T04:23:48.446Z,77.62
2019-03-27T04:26:20.822Z,77.19
2019-03-27T04:28:52.158Z,77.03
2019-03-27T04:31:23.396Z,77.14
2019-03-27T04:33:54.694Z,76.95
2019-03-27T04:36:25.925Z,77.16
2019-03-27T04:38:57.617Z,77.29
2019-03-27T04:41:28.914Z,77.37
2019-03-27T04:44:00.192Z,77.45
2019-03-27T04:46:31.439Z,77.64
2019-03-27T04:49:07.354Z,77.03
2019-03-27T04:51:35.699Z,76.98
2019-03-27T04:54:12.595Z,77.09
2019-03-27T04:56:43.958Z,77.44
2019-03-27T04:59:15.579Z,77.55
2019-03-27T05:01:46.810Z,77.67
2019-03-27T05:04:18.332Z,77.66
2019-03-27T05:06:49.698Z,77.50
2019-03-27T05:09:21.329Z,77.10
2019-03-27T05:11:52.687Z,77.04
2019-03-27T05:14:24.102Z,76.85
2019-03-27T05:16:55.341Z,76.62
2019-03-27T05:19:26.631Z,76.82
2019-03-27T05:21:57.980Z,76.84
2019-03-27T05:24:29.283Z,77.25
2019-03-27T05:27:00.541Z,77.24
2019-03-27T05:29:31.841Z,77.23
2019-03-27T05:32:03.083Z,77.44
2019-03-27T05:34:34.468Z,77.56
2019-03-27T05:37:05.712Z,77.48
2019-03-27T05:39:37.018Z,77.62
2019-03-27T05:42:08.325Z,77.76
2019-03-27T05:44:39.715Z,77.20
2019-03-27T05:47:11.094Z,77.24
2019-03-27T05:49:42.383Z,77.40
2019-03-27T05:52:13.603Z,77.10
2019-03-27T05:54:44.991Z,76.75
2019-03-27T05:57:16.231Z,76.55
2019-03-27T05:59:47.579Z,76.45
2019-03-27T06:02:18.912Z,76.24
2019-03-27T06:04:53.884Z,76.23
2019-03-27T06:07:25.976Z,76.17
2019-03-27T06:09:57.749Z,76.24
2019-03-27T06:12:32.515Z,76.34
2019-03-27T06:15:06.881Z,76.33
2019-03-27T06:17:38.192Z,76.41
2019-03-27T06:20:09.706Z,76.42
2019-03-27T06:22:40.939Z,76.49
2019-03-27T06:25:12.370Z,76.46
2019-03-27T06:27:43.621Z,76.36
2019-03-27T06:30:16.573Z,76.36
2019-03-27T06:32:47.864Z,76.29
2019-03-27T06:35:20.229Z,76.17
2019-03-27T06:37:51.770Z,76.32
2019-03-27T06:40:23.460Z,76.26
2019-03-27T06:42:54.786Z,76.53
2019-03-27T06:45:26.139Z,76.33
2019-03-27T06:47:57.519Z,76.14
2019-03-27T06:50:28.871Z,76.04
2019-03-27T06:53:00.166Z,76.03
2019-03-27T06:55:32.657Z,76.21
2019-03-27T06:58:03.952Z,76.57
2019-03-27T07:00:37.045Z,76.30
2019-03-27T07:03:09.047Z,76.21
2019-03-27T07:05:41.194Z,75.41
2019-03-27T07:08:12.483Z,75.22
2019-03-27T07:10:43.817Z,74.51
2019-03-27T07:13:15.141Z,74.57
2019-03-27T07:15:46.427Z,74.41
2019-03-27T07:18:17.729Z,73.92
2019-03-27T07:20:49.081Z,73.33
2019-03-27T07:23:20.387Z,73.90
2019-03-27T07:25:51.843Z,72.75
2019-03-27T07:28:23.215Z,72.15
2019-03-27T07:30:54.496Z,71.44
2019-03-27T07:33:25.768Z,71.46
2019-03-27T07:35:57.028Z,71.11
2019-03-27T07:38:28.323Z,71.26
2019-03-27T07:41:00.699Z,70.60
2019-03-27T07:43:32.011Z,70.19
2019-03-27T07:46:03.352Z,70.22
2019-03-27T07:48:34.584Z,69.91
2019-03-27T07:51:05.953Z,69.61
2019-03-27T07:53:37.255Z,69.24
2019-03-27T07:56:08.724Z,68.90
2019-03-27T07:58:40.090Z,68.57
2019-03-27T08:01:11.393Z,68.52
2019-03-27T08:03:42.643Z,68.04
2019-03-27T08:06:14.047Z,67.51
2019-03-27T08:08:45.279Z,66.51
2019-03-27T08:11:16.582Z,65.47
2019-03-27T08:13:47.842Z,65.56
2019-03-27T08:16:19.166Z,65.00
2019-03-27T08:18:50.439Z,65.36
2019-03-27T08:21:21.761Z,65.01
2019-03-27T08:23:54.681Z,62.39
2019-03-27T08:26:26.112Z,62.93
2019-03-27T08:28:57.339Z,61.26
2019-03-27T08:31:28.700Z,59.35
2019-03-27T08:33:59.969Z,60.50
2019-03-27T08:36:31.266Z,61.68
2019-03-27T08:39:02.497Z,59.65
2019-03-27T08:41:35.368Z,60.16
2019-03-27T08:44:06.740Z,59.26
2019-03-27T08:46:39.717Z,59.71
2019-03-27T08:49:21.338Z,58.61
2019-03-27T08:51:44.180Z,57.79
2019-03-27T08:54:15.541Z,58.07
2019-03-27T08:56:46.843Z,57.90
2019-03-27T08:59:18.072Z,57.23
2019-03-27T09:01:49.380Z,58.49
2019-03-27T09:04:20.766Z,57.77
2019-03-27T09:06:53.125Z,57.72
2019-03-27T09:09:24.424Z,56.71
2019-03-27T09:11:55.928Z,56.86
2019-03-27T09:14:27.205Z,56.13
2019-03-27T09:16:58.623Z,55.75
2019-03-27T09:19:35.461Z,55.58
2019-03-27T09:22:03.045Z,54.51
2019-03-27T09:24:34.280Z,56.25
2019-03-27T09:27:05.727Z,55.68
2019-03-27T09:29:36.967Z,54.50
2019-03-27T09:32:08.258Z,54.08
2019-03-27T09:34:39.573Z,53.25
2019-03-27T09:37:10.971Z,54.49
2019-03-27T09:39:42.359Z,55.08
2019-03-27T09:42:13.824Z,54.54
2019-03-27T09:44:46.213Z,53.55
2019-03-27T09:47:17.511Z,53.20
2019-03-27T09:49:50.070Z,53.07
2019-03-27T09:52:21.558Z,51.53
2019-03-27T09:54:52.809Z,50.80
2019-03-27T09:57:24.144Z,51.25
2019-03-27T09:59:55.396Z,51.45
2019-03-27T10:02:26.688Z,51.06
2019-03-27T10:04:58.010Z,49.92
2019-03-27T10:07:30.180Z,49.38
2019-03-27T10:10:02.493Z,49.99
2019-03-27T10:12:33.940Z,49.26
2019-03-27T10:15:11.661Z,48.67
2019-03-27T10:17:43.053Z,49.22
2019-03-27T10:20:14.438Z,48.16
2019-03-27T10:22:45.728Z,49.19
2019-03-27T10:25:17.125Z,49.74
2019-03-27T10:27:48.432Z,48.58
2019-03-27T10:30:19.824Z,48.54
2019-03-27T10:32:51.142Z,48.74
2019-03-27T10:35:22.464Z,46.61
2019-03-27T10:37:53.854Z,48.08
2019-03-27T10:40:25.169Z,48.80
2019-03-27T10:42:56.551Z,44.74
2019-03-27T10:45:27.814Z,46.09
2019-03-27T10:47:59.130Z,47.21
2019-03-27T10:50:30.377Z,47.60
2019-03-27T10:53:01.774Z,47.46
2019-03-27T10:55:34.566Z,47.85
2019-03-27T10:58:07.355Z,47.12
2019-03-27T11:00:40.401Z,45.93
2019-03-27T11:03:12.114Z,43.68
2019-03-27T11:05:43.540Z,43.93
2019-03-27T11:08:14.901Z,42.29
2019-03-27T11:10:46.340Z,43.36
2019-03-27T11:13:17.648Z,43.86
2019-03-27T11:15:48.962Z,44.16
2019-03-27T11:18:20.271Z,41.79
2019-03-27T11:20:51.579Z,44.17
2019-03-27T11:23:23.010Z,41.57
2019-03-27T11:25:55.851Z,38.00
2019-03-27T11:28:27.201Z,36.96
2019-03-27T11:30:58.437Z,37.39
2019-03-27T11:33:29.802Z,38.20
2019-03-27T11:36:01.111Z,37.63
2019-03-27T11:38:32.426Z,36.21
2019-03-27T11:41:03.897Z,38.39
2019-03-27T11:43:35.273Z,39.79
2019-03-27T11:46:06.717Z,39.50
2019-03-27T11:48:38.137Z,39.31
2019-03-27T11:51:09.380Z,39.20
2019-03-27T11:53:40.666Z,39.95
2019-03-27T11:56:11.936Z,38.30
2019-03-27T11:58:43.350Z,40.60
2019-03-27T12:01:14.652Z,38.88
2019-03-27T12:03:46.012Z,36.90
2019-03-27T12:06:17.312Z,36.77
2019-03-27T12:08:51.005Z,36.81
2019-03-27T12:11:23.566Z,38.12
2019-03-27T12:13:54.940Z,37.70
2019-03-27T12:16:26.180Z,39.62
2019-03-27T12:18:57.464Z,38.00
2019-03-27T12:21:28.746Z,37.43
2019-03-27T12:24:00.040Z,37.58
2019-03-27T12:26:31.344Z,37.85
2019-03-27T12:29:02.655Z,37.11
2019-03-27T12:31:33.887Z,37.53
2019-03-27T12:34:05.238Z,38.77
2019-03-27T12:36:36.613Z,38.10
2019-03-27T12:39:08.610Z,37.35
2019-03-27T12:41:39.914Z,37.58
2019-03-27T12:44:11.353Z,35.92
2019-03-27T12:46:42.618Z,36.09
2019-03-27T12:49:14.041Z,36.22
2019-03-27T12:51:45.349Z,35.43
2019-03-27T12:54:16.724Z,36.94
2019-03-27T12:56:48.114Z,37.28
2019-03-27T12:59:19.428Z,37.11
2019-03-27T13:01:50.730Z,38.82
2019-03-27T13:04:22.086Z,33.10
2019-03-27T13:06:53.386Z,33.29
2019-03-27T13:09:25.737Z,34.32
2019-03-27T13:11:56.962Z,33.39
2019-03-27T13:14:28.279Z,34.04
2019-03-27T13:16:59.581Z,35.34
2019-03-27T13:19:30.875Z,34.70
2019-03-27T13:22:02.121Z,35.49
2019-03-27T13:24:33.398Z,33.87
2019-03-27T13:27:05.569Z,35.71
2019-03-27T13:29:36.935Z,34.78
2019-03-27T13:32:08.242Z,36.09
2019-03-27T13:34:40.603Z,34.22
2019-03-27T13:37:11.840Z,34.06
2019-03-27T13:39:43.134Z,36.26
2019-03-27T13:42:14.362Z,32.94
2019-03-27T13:44:45.672Z,33.01
2019-03-27T13:47:17.356Z,35.15
2019-03-27T13:49:48.780Z,33.01
2019-03-27T13:52:20.173Z,31.85
2019-03-27T13:54:51.531Z,33.20
2019-03-27T13:57:22.832Z,33.18
2019-03-27T13:59:54.274Z,34.41
2019-03-27T14:02:25.611Z,35.27
2019-03-27T14:04:57.523Z,36.74
2019-03-27T14:07:28.754Z,36.11
2019-03-27T14:10:08.013Z,36.40
2019-03-27T14:12:39.740Z,36.36
2019-03-27T14:15:14.019Z,37.64
2019-03-27T14:17:45.252Z,37.77
2019-03-27T14:20:17.095Z,37.57
2019-03-27T14:22:48.438Z,39.17
2019-03-27T14:25:22.132Z,37.93
2019-03-27T14:27:56.432Z,38.07
2019-03-27T14:30:49.067Z,36.89
2019-03-27T14:33:21.113Z,37.83
2019-03-27T14:35:52.608Z,38.47
2019-03-27T14:38:24.699Z,38.24
2019-03-27T14:40:56.003Z,38.50
2019-03-27T14:43:27.425Z,34.42
2019-03-27T14:46:00.216Z,35.86
2019-03-27T14:48:31.603Z,34.33
2019-03-27T14:51:04.065Z,33.64
2019-03-27T14:53:35.436Z,33.90
2019-03-27T14:56:06.865Z,33.40
2019-03-27T14:58:38.122Z,34.63
2019-03-27T15:01:09.591Z,32.24
2019-03-27T15:03:42.550Z,33.91
2019-03-27T15:06:13.808Z,33.98
2019-03-27T15:08:45.072Z,34.16
2019-03-27T15:11:17.378Z,34.15
2019-03-27T15:13:48.627Z,34.66
2019-03-27T15:16:19.996Z,32.96
2019-03-27T15:18:52.714Z,34.01
2019-03-27T15:21:24.302Z,32.49
2019-03-27T15:23:55.639Z,33.84
2019-03-27T15:26:26.929Z,33.24
2019-03-27T15:28:58.286Z,34.84
2019-03-27T15:31:29.792Z,34.17
2019-03-27T15:34:01.181Z,33.71
2019-03-27T15:36:32.487Z,34.19
2019-03-27T15:39:05.741Z,34.07
2019-03-27T15:41:37.097Z,35.87
2019-03-27T15:44:08.476Z,34.23
2019-03-27T15:46:41.387Z,34.51
2019-03-27T15:49:12.700Z,34.97
2019-03-27T15:51:44.064Z,33.76
2019-03-27T15:54:16.210Z,34.67
2019-03-27T15:56:47.665Z,36.18
2019-03-27T15:59:18.900Z,34.43
2019-03-27T16:01:50.290Z,33.95
2019-03-27T16:04:21.512Z,33.93
2019-03-27T16:06:52.842Z,33.14
2019-03-27T16:09:24.182Z,34.43
2019-03-27T16:11:56.406Z,34.01
2019-03-27T16:14:27.780Z,33.81
2019-03-27T16:17:12.775Z,34.55
2019-03-27T16:19:32.349Z,34.59
2019-03-27T16:22:03.869Z,34.27
2019-03-27T16:24:35.365Z,34.96
2019-03-27T16:27:06.728Z,35.74
2019-03-27T16:29:40.882Z,34.50
2019-03-27T16:32:12.374Z,35.58
2019-03-27T16:34:43.678Z,34.10
2019-03-27T16:37:15.632Z,35.13
2019-03-27T16:39:46.858Z,34.81
2019-03-27T16:42:18.212Z,34.05
2019-03-27T16:44:50.587Z,34.98
2019-03-27T16:47:22.091Z,35.38
2019-03-27T16:49:53.427Z,36.36
2019-03-27T16:52:24.889Z,36.82
2019-03-27T16:54:56.158Z,37.64
2019-03-27T16:57:27.571Z,37.83
2019-03-27T16:59:59.057Z,38.51
2019-03-27T17:02:30.488Z,38.46
2019-03-27T17:05:01.793Z,39.23
2019-03-27T17:07:33.244Z,39.47
2019-03-27T17:10:05.889Z,39.73
2019-03-27T17:12:52.915Z,39.79
2019-03-27T17:15:24.259Z,39.70
2019-03-27T17:17:55.805Z,40.31
2019-03-27T17:20:27.110Z,41.17
2019-03-27T17:22:58.484Z,41.31
2019-03-27T17:25:29.833Z,41.75
2019-03-27T17:28:01.146Z,42.25
2019-03-27T17:30:32.465Z,42.58
2019-03-27T17:33:03.892Z,43.03
2019-03-27T17:35:35.252Z,43.57
2019-03-27T17:38:10.821Z,43.63
2019-03-27T17:40:40.626Z,44.59
2019-03-27T17:43:12.022Z,44.47
2019-03-27T17:45:44.302Z,44.61
2019-03-27T17:48:17.372Z,44.69
2019-03-27T17:50:48.723Z,45.06
2019-03-27T17:53:30.974Z,45.47
2019-03-27T17:55:59.143Z,46.08
2019-03-27T17:58:30.503Z,46.97
2019-03-27T18:01:03.384Z,46.75
2019-03-27T18:03:34.864Z,46.77
2019-03-27T18:06:06.289Z,46.84
2019-03-27T18:08:37.760Z,47.21
2019-03-27T18:11:09.143Z,47.83
2019-03-27T18:13:41.659Z,48.00
2019-03-27T18:16:13.028Z,48.61
2019-03-27T18:18:44.465Z,49.55
2019-03-27T18:21:15.708Z,49.08
2019-03-27T18:23:47.310Z,49.78
2019-03-27T18:26:18.752Z,49.81
2019-03-27T18:28:50.093Z,50.20
2019-03-27T18:31:21.426Z,50.76
2019-03-27T18:34:02.717Z,51.28
2019-03-27T18:36:34.006Z,51.27
2019-03-27T18:39:08.603Z,51.58
2019-03-27T18:41:39.934Z,51.69
2019-03-27T18:44:11.235Z,51.96
2019-03-27T18:46:42.673Z,51.89
2019-03-27T18:49:14.200Z,52.26
2019-03-27T18:51:45.441Z,52.02
2019-03-27T18:54:16.867Z,52.63
2019-03-27T18:56:48.173Z,53.32
2019-03-27T18:59:19.449Z,53.61
2019-03-27T19:01:50.746Z,53.91
2019-03-27T19:04:22.770Z,53.62
2019-03-27T19:06:54.123Z,53.40
2019-03-27T19:09:25.587Z,53.59
2019-03-27T19:11:57.242Z,53.05
2019-03-27T19:14:29.226Z,52.95
2019-03-27T19:17:01.525Z,53.13
2019-03-27T19:19:32.901Z,53.64
2019-03-27T19:22:05.645Z,54.05
2019-03-27T19:24:37.048Z,54.03
2019-03-27T19:27:08.582Z,53.75
2019-03-27T19:29:44.783Z,53.93
2019-03-27T19:32:14.923Z,54.24
2019-03-27T19:34:46.443Z,54.25
2019-03-27T19:37:17.725Z,54.30
2019-03-27T19:39:50.134Z,54.80
2019-03-27T19:42:21.487Z,54.75
2019-03-27T19:44:52.883Z,54.58
2019-03-27T19:47:24.109Z,54.59
2019-03-27T19:49:55.470Z,55.08
2019-03-27T19:52:26.867Z,55.31
2019-03-27T19:54:58.705Z,55.12
2019-03-27T19:57:30.046Z,55.09
2019-03-27T20:00:01.705Z,55.45
2019-03-27T20:02:33.585Z,55.10
2019-03-27T20:05:06.493Z,55.52
2019-03-27T20:07:38.793Z,55.79
2019-03-27T20:10:11.803Z,56.01
2019-03-27T20:12:43.114Z,56.30
2019-03-27T20:15:15.609Z,55.74
2019-03-27T20:17:47.046Z,56.23
2019-03-27T20:20:18.492Z,56.38
2019-03-27T20:22:49.956Z,56.86
2019-03-27T20:25:21.425Z,56.71
2019-03-27T20:27:52.785Z,57.43
2019-03-27T20:30:26.897Z,56.84
2019-03-27T20:32:57.568Z,57.04
2019-03-27T20:35:29.024Z,57.13
2019-03-27T20:38:00.394Z,57.40
2019-03-27T20:40:31.848Z,57.26
2019-03-27T20:43:03.075Z,58.06
2019-03-27T20:45:34.465Z,58.01
2019-03-27T20:48:05.766Z,57.61
2019-03-27T20:50:38.338Z,58.02
2019-03-27T20:53:10.179Z,57.79
2019-03-27T20:55:41.804Z,57.97
2019-03-27T20:58:13.129Z,58.92
2019-03-27T21:00:44.528Z,58.93
2019-03-27T21:03:16.226Z,58.82
2019-03-27T21:05:47.974Z,58.81
2019-03-27T21:08:19.280Z,58.80
2019-03-27T21:10:50.698Z,58.77
2019-03-27T21:13:22.011Z,59.04
2019-03-27T21:15:53.366Z,59.31
2019-03-27T21:18:24.679Z,59.82
2019-03-27T21:20:55.977Z,60.52
2019-03-27T21:23:27.625Z,61.31
2019-03-27T21:25:59.012Z,61.63
2019-03-27T21:28:30.263Z,62.08
2019-03-27T21:31:01.626Z,62.30
2019-03-27T21:33:32.957Z,62.35
2019-03-27T21:36:04.315Z,62.62
2019-03-27T21:38:35.753Z,62.58
2019-03-27T21:41:07.052Z,62.97
2019-03-27T21:43:38.408Z,63.34
2019-03-27T21:46:09.831Z,63.51
2019-03-27T21:48:41.063Z,63.54
2019-03-27T21:51:12.437Z,63.59
2019-03-27T21:53:44.374Z,63.46
2019-03-27T21:56:16.818Z,63.11
2019-03-27T21:58:48.056Z,62.56
2019-03-27T22:01:19.580Z,62.66
2019-03-27T22:03:51.029Z,63.82
2019-03-27T22:06:22.347Z,64.25
2019-03-27T22:08:53.667Z,64.36
2019-03-27T22:11:25.084Z,64.27
2019-03-27T22:13:56.524Z,64.50
2019-03-27T22:16:27.890Z,64.51
2019-03-27T22:18:59.256Z,64.81
2019-03-27T22:21:31.139Z,64.89
2019-03-27T22:24:03.510Z,65.15
2019-03-27T22:26:34.788Z,65.16
2019-03-27T22:29:06.089Z,65.09
2019-03-27T22:31:38.315Z,65.10
2019-03-27T22:34:09.668Z,64.89
2019-03-27T22:36:42.559Z,64.94
2019-03-27T22:39:14.809Z,64.74
2019-03-27T22:41:46.162Z,65.24
2019-03-27T22:44:17.392Z,64.93
2019-03-27T22:46:48.748Z,65.58
2019-03-27T22:49:20.115Z,65.87
2019-03-27T22:51:51.405Z,65.99
2019-03-27T22:54:22.812Z,66.17
2019-03-27T22:56:54.092Z,66.64
2019-03-27T22:59:25.325Z,65.96
2019-03-27T23:01:56.682Z,65.83
2019-03-27T23:04:27.984Z,65.73
2019-03-27T23:06:59.427Z,65.79
2019-03-27T23:09:31.778Z,65.78
2019-03-27T23:12:03.153Z,65.68
2019-03-27T23:14:34.459Z,65.63
2019-03-27T23:17:05.927Z,65.47
2019-03-27T23:19:37.158Z,65.41
2019-03-27T23:22:08.575Z,65.27
2019-03-27T23:24:39.894Z,65.10
2019-03-27T23:27:11.315Z,65.13
2019-03-27T23:29:42.625Z,65.17
2019-03-27T23:32:14.216Z,65.21
2019-03-27T23:34:49.304Z,65.28
2019-03-27T23:37:20.669Z,65.91
2019-03-27T23:39:52.019Z,65.84
2019-03-27T23:42:23.470Z,65.93
2019-03-27T23:44:54.697Z,66.21
2019-03-27T23:47:26.057Z,66.47
2019-03-27T23:49:57.427Z,66.66
2019-03-27T23:52:28.721Z,66.62
2019-03-27T23:55:00.125Z,66.48
2019-03-27T23:57:31.531Z,66.58
